sensor_id;sensor_type;location;lat;lon;timestamp;temperature;humidity
64111;DHT22;50401;48.188;11.566;2023-02-26T00:01:20;1.84;77.85
64111;DHT22;50401;48.188;11.566;2023-02-26T00:03:55;1.84;78.05
64111;DHT22;50401;48.188;11.566;2023-02-26T00:06:21;1.86;77.81
64111;DHT22;50401;48.188;11.566;2023-02-26T00:08:47;1.92;77.80
64111;DHT22;50401;48.188;11.566;2023-02-26T00:11:12;1.86;77.75
64111;DHT22;50401;48.188;11.566;2023-02-26T00:13:40;1.89;77.72
64111;DHT22;50401;48.188;11.566;2023-02-26T00:16:34;1.80;77.69
64111;DHT22;50401;48.188;11.566;2023-02-26T00:19:02;1.77;77.85
64111;DHT22;50401;48.188;11.566;2023-02-26T00:21:29;1.76;77.91
64111;DHT22;50401;48.188;11.566;2023-02-26T00:23:55;1.75;77.77
64111;DHT22;50401;48.188;11.566;2023-02-26T00:26:23;1.75;77.98
64111;DHT22;50401;48.188;11.566;2023-02-26T00:28:49;1.77;78.02
64111;DHT22;50401;48.188;11.566;2023-02-26T00:31:15;1.76;78.14
64111;DHT22;50401;48.188;11.566;2023-02-26T00:33:41;1.72;78.02
64111;DHT22;50401;48.188;11.566;2023-02-26T00:38:50;1.68;78.34
64111;DHT22;50401;48.188;11.566;2023-02-26T00:41:17;1.70;78.48
64111;DHT22;50401;48.188;11.566;2023-02-26T00:43:43;1.72;78.25
64111;DHT22;50401;48.188;11.566;2023-02-26T00:48:54;1.73;77.71
64111;DHT22;50401;48.188;11.566;2023-02-26T00:51:29;1.73;77.58
64111;DHT22;50401;48.188;11.566;2023-02-26T00:57:00;1.63;77.52
64111;DHT22;50401;48.188;11.566;2023-02-26T00:59:28;1.60;77.42
64111;DHT22;50401;48.188;11.566;2023-02-26T01:01:53;1.55;77.51
64111;DHT22;50401;48.188;11.566;2023-02-26T01:04:21;1.51;77.65
64111;DHT22;50401;48.188;11.566;2023-02-26T01:06:49;1.52;77.65
64111;DHT22;50401;48.188;11.566;2023-02-26T01:09:23;1.51;77.58
64111;DHT22;50401;48.188;11.566;2023-02-26T01:11:50;1.49;77.31
64111;DHT22;50401;48.188;11.566;2023-02-26T01:14:16;1.54;77.53
64111;DHT22;50401;48.188;11.566;2023-02-26T01:16:51;1.59;77.54
64111;DHT22;50401;48.188;11.566;2023-02-26T01:21:57;1.49;77.17
64111;DHT22;50401;48.188;11.566;2023-02-26T01:24:24;1.45;77.04
64111;DHT22;50401;48.188;11.566;2023-02-26T01:26:51;1.35;77.03
64111;DHT22;50401;48.188;11.566;2023-02-26T01:29:17;1.37;77.26
64111;DHT22;50401;48.188;11.566;2023-02-26T01:31:56;1.35;77.65
64111;DHT22;50401;48.188;11.566;2023-02-26T01:40:12;1.35;77.22
64111;DHT22;50401;48.188;11.566;2023-02-26T01:42:42;1.37;77.10
64111;DHT22;50401;48.188;11.566;2023-02-26T01:45:10;1.34;76.84
64111;DHT22;50401;48.188;11.566;2023-02-26T01:47:48;1.37;76.94
64111;DHT22;50401;48.188;11.566;2023-02-26T01:50:18;1.35;76.73
64111;DHT22;50401;48.188;11.566;2023-02-26T01:53:17;1.30;76.81
64111;DHT22;50401;48.188;11.566;2023-02-26T01:55:47;1.28;77.06
64111;DHT22;50401;48.188;11.566;2023-02-26T01:58:14;1.31;76.79
64111;DHT22;50401;48.188;11.566;2023-02-26T02:00:41;1.35;76.51
64111;DHT22;50401;48.188;11.566;2023-02-26T02:03:07;1.33;76.67
64111;DHT22;50401;48.188;11.566;2023-02-26T02:05:52;1.28;76.37
64111;DHT22;50401;48.188;11.566;2023-02-26T02:08:20;1.28;76.09
64111;DHT22;50401;48.188;11.566;2023-02-26T02:10:47;1.26;75.01
64111;DHT22;50401;48.188;11.566;2023-02-26T02:13:29;1.08;74.21
64111;DHT22;50401;48.188;11.566;2023-02-26T02:18:42;1.20;75.24
64111;DHT22;50401;48.188;11.566;2023-02-26T02:24:48;1.26;75.39
64111;DHT22;50401;48.188;11.566;2023-02-26T02:32:46;1.22;74.29
64111;DHT22;50401;48.188;11.566;2023-02-26T02:35:23;1.22;74.74
64111;DHT22;50401;48.188;11.566;2023-02-26T02:37:57;1.17;74.81
64111;DHT22;50401;48.188;11.566;2023-02-26T02:40:31;1.20;74.86
64111;DHT22;50401;48.188;11.566;2023-02-26T02:43:03;1.13;75.55
64111;DHT22;50401;48.188;11.566;2023-02-26T02:45:36;1.17;75.86
64111;DHT22;50401;48.188;11.566;2023-02-26T02:48:07;1.16;75.71
64111;DHT22;50401;48.188;11.566;2023-02-26T02:50:40;1.19;75.95
64111;DHT22;50401;48.188;11.566;2023-02-26T02:56:19;1.08;76.65
64111;DHT22;50401;48.188;11.566;2023-02-26T03:01:44;1.14;76.25
64111;DHT22;50401;48.188;11.566;2023-02-26T03:04:12;1.13;75.70
64111;DHT22;50401;48.188;11.566;2023-02-26T03:06:39;1.13;75.75
64111;DHT22;50401;48.188;11.566;2023-02-26T03:09:07;1.06;75.49
64111;DHT22;50401;48.188;11.566;2023-02-26T03:11:33;0.93;75.03
64111;DHT22;50401;48.188;11.566;2023-02-26T03:13:58;0.78;75.44
64111;DHT22;50401;48.188;11.566;2023-02-26T03:21:46;0.69;74.27
64111;DHT22;50401;48.188;11.566;2023-02-26T03:24:34;0.75;74.64
64111;DHT22;50401;48.188;11.566;2023-02-26T03:27:19;0.73;74.56
64111;DHT22;50401;48.188;11.566;2023-02-26T03:29:52;0.79;73.98
64111;DHT22;50401;48.188;11.566;2023-02-26T03:32:33;0.82;73.93
64111;DHT22;50401;48.188;11.566;2023-02-26T03:35:08;0.83;73.83
64111;DHT22;50401;48.188;11.566;2023-02-26T03:37:42;0.88;74.14
64111;DHT22;50401;48.188;11.566;2023-02-26T03:40:14;0.82;73.78
64111;DHT22;50401;48.188;11.566;2023-02-26T03:42:48;0.83;73.73
64111;DHT22;50401;48.188;11.566;2023-02-26T03:45:18;0.81;73.70
64111;DHT22;50401;48.188;11.566;2023-02-26T03:47:47;0.79;73.95
64111;DHT22;50401;48.188;11.566;2023-02-26T03:50:45;0.83;74.15
64111;DHT22;50401;48.188;11.566;2023-02-26T03:53:14;0.85;74.33
64111;DHT22;50401;48.188;11.566;2023-02-26T03:55:45;0.82;74.44
64111;DHT22;50401;48.188;11.566;2023-02-26T03:58:11;0.78;74.32
64111;DHT22;50401;48.188;11.566;2023-02-26T04:00:38;0.66;74.25
64111;DHT22;50401;48.188;11.566;2023-02-26T04:03:29;0.71;74.39
64111;DHT22;50401;48.188;11.566;2023-02-26T04:05:58;0.69;74.35
64111;DHT22;50401;48.188;11.566;2023-02-26T04:08:25;0.66;74.47
64111;DHT22;50401;48.188;11.566;2023-02-26T04:10:54;0.65;74.64
64111;DHT22;50401;48.188;11.566;2023-02-26T04:13:20;0.64;74.58
64111;DHT22;50401;48.188;11.566;2023-02-26T04:15:46;0.57;74.96
64111;DHT22;50401;48.188;11.566;2023-02-26T04:18:11;0.54;74.69
64111;DHT22;50401;48.188;11.566;2023-02-26T04:20:37;0.54;74.84
64111;DHT22;50401;48.188;11.566;2023-02-26T04:23:02;0.43;75.06
64111;DHT22;50401;48.188;11.566;2023-02-26T04:25:27;0.47;74.95
64111;DHT22;50401;48.188;11.566;2023-02-26T04:27:53;0.44;74.87
64111;DHT22;50401;48.188;11.566;2023-02-26T04:30:18;0.41;74.72
64111;DHT22;50401;48.188;11.566;2023-02-26T04:32:44;0.40;74.80
64111;DHT22;50401;48.188;11.566;2023-02-26T04:35:09;0.41;75.13
64111;DHT22;50401;48.188;11.566;2023-02-26T04:37:35;0.43;75.00
64111;DHT22;50401;48.188;11.566;2023-02-26T04:40:00;0.40;75.15
64111;DHT22;50401;48.188;11.566;2023-02-26T04:42:26;0.36;74.92
64111;DHT22;50401;48.188;11.566;2023-02-26T04:44:51;0.34;74.67
64111;DHT22;50401;48.188;11.566;2023-02-26T04:47:16;0.40;74.67
64111;DHT22;50401;48.188;11.566;2023-02-26T04:49:42;0.37;74.57
64111;DHT22;50401;48.188;11.566;2023-02-26T04:52:07;0.36;74.78
64111;DHT22;50401;48.188;11.566;2023-02-26T04:54:32;0.29;74.84
64111;DHT22;50401;48.188;11.566;2023-02-26T04:56:58;0.27;74.42
64111;DHT22;50401;48.188;11.566;2023-02-26T04:59:23;0.29;74.44
64111;DHT22;50401;48.188;11.566;2023-02-26T05:01:48;0.27;74.47
64111;DHT22;50401;48.188;11.566;2023-02-26T05:04:14;0.20;74.31
64111;DHT22;50401;48.188;11.566;2023-02-26T05:06:40;0.16;74.32
64111;DHT22;50401;48.188;11.566;2023-02-26T05:09:06;0.05;74.58
64111;DHT22;50401;48.188;11.566;2023-02-26T05:11:31;0.02;74.23
64111;DHT22;50401;48.188;11.566;2023-02-26T05:13:57;-0.04;74.05
64111;DHT22;50401;48.188;11.566;2023-02-26T05:16:22;-0.08;74.39
64111;DHT22;50401;48.188;11.566;2023-02-26T05:18:47;-0.08;74.36
64111;DHT22;50401;48.188;11.566;2023-02-26T05:21:13;-0.16;74.40
64111;DHT22;50401;48.188;11.566;2023-02-26T05:23:38;-0.19;74.37
64111;DHT22;50401;48.188;11.566;2023-02-26T05:26:03;-0.23;74.50
64111;DHT22;50401;48.188;11.566;2023-02-26T05:28:29;-0.28;74.52
64111;DHT22;50401;48.188;11.566;2023-02-26T05:30:56;-0.29;74.26
64111;DHT22;50401;48.188;11.566;2023-02-26T05:33:22;-0.29;74.37
64111;DHT22;50401;48.188;11.566;2023-02-26T05:35:47;-0.29;74.34
64111;DHT22;50401;48.188;11.566;2023-02-26T05:38:13;-0.33;74.40
64111;DHT22;50401;48.188;11.566;2023-02-26T05:40:38;-0.34;74.37
64111;DHT22;50401;48.188;11.566;2023-02-26T05:43:04;-0.44;74.13
64111;DHT22;50401;48.188;11.566;2023-02-26T05:45:29;-0.37;74.13
64111;DHT22;50401;48.188;11.566;2023-02-26T05:47:54;-0.40;74.25
64111;DHT22;50401;48.188;11.566;2023-02-26T05:50:20;-0.43;74.14
64111;DHT22;50401;48.188;11.566;2023-02-26T05:52:45;-0.43;74.16
64111;DHT22;50401;48.188;11.566;2023-02-26T05:55:11;-0.49;74.16
64111;DHT22;50401;48.188;11.566;2023-02-26T05:57:36;-0.50;74.21
64111;DHT22;50401;48.188;11.566;2023-02-26T06:00:04;-0.52;74.15
64111;DHT22;50401;48.188;11.566;2023-02-26T06:02:30;-0.54;74.24
64111;DHT22;50401;48.188;11.566;2023-02-26T06:04:55;-0.54;74.22
64111;DHT22;50401;48.188;11.566;2023-02-26T06:07:20;-0.64;74.17
64111;DHT22;50401;48.188;11.566;2023-02-26T06:09:46;-0.67;74.45
64111;DHT22;50401;48.188;11.566;2023-02-26T06:12:11;-0.68;74.38
64111;DHT22;50401;48.188;11.566;2023-02-26T06:14:36;-0.71;74.13
64111;DHT22;50401;48.188;11.566;2023-02-26T06:17:03;-0.67;73.82
64111;DHT22;50401;48.188;11.566;2023-02-26T06:19:28;-0.64;73.80
64111;DHT22;50401;48.188;11.566;2023-02-26T06:21:54;-0.73;73.84
64111;DHT22;50401;48.188;11.566;2023-02-26T06:24:19;-0.77;73.72
64111;DHT22;50401;48.188;11.566;2023-02-26T06:26:45;-0.98;73.79
64111;DHT22;50401;48.188;11.566;2023-02-26T06:29:10;-0.92;74.36
64111;DHT22;50401;48.188;11.566;2023-02-26T06:31:36;-0.85;74.71
64111;DHT22;50401;48.188;11.566;2023-02-26T06:34:01;-0.70;74.30
64111;DHT22;50401;48.188;11.566;2023-02-26T06:36:26;-0.75;74.58
64111;DHT22;50401;48.188;11.566;2023-02-26T06:38:52;-0.54;74.03
64111;DHT22;50401;48.188;11.566;2023-02-26T06:41:17;-0.30;73.50
64111;DHT22;50401;48.188;11.566;2023-02-26T06:43:43;-0.19;72.91
64111;DHT22;50401;48.188;11.566;2023-02-26T06:46:08;-0.06;72.32
64111;DHT22;50401;48.188;11.566;2023-02-26T06:48:34;-0.01;71.95
64111;DHT22;50401;48.188;11.566;2023-02-26T06:50:59;0.09;72.14
64111;DHT22;50401;48.188;11.566;2023-02-26T06:53:24;0.09;71.94
64111;DHT22;50401;48.188;11.566;2023-02-26T06:55:51;0.16;71.38
64111;DHT22;50401;48.188;11.566;2023-02-26T06:58:17;0.13;71.34
64111;DHT22;50401;48.188;11.566;2023-02-26T07:00:43;0.03;71.51
64111;DHT22;50401;48.188;11.566;2023-02-26T07:03:13;-0.01;71.73
64111;DHT22;50401;48.188;11.566;2023-02-26T07:05:39;0.05;71.76
64111;DHT22;50401;48.188;11.566;2023-02-26T07:08:04;0.05;72.16
64111;DHT22;50401;48.188;11.566;2023-02-26T07:10:34;0.31;72.06
64111;DHT22;50401;48.188;11.566;2023-02-26T07:13:00;0.60;71.06
64111;DHT22;50401;48.188;11.566;2023-02-26T07:15:25;0.97;70.07
64111;DHT22;50401;48.188;11.566;2023-02-26T07:17:51;1.31;68.64
64111;DHT22;50401;48.188;11.566;2023-02-26T07:20:16;1.34;67.98
64111;DHT22;50401;48.188;11.566;2023-02-26T07:22:43;1.44;67.97
64111;DHT22;50401;48.188;11.566;2023-02-26T07:25:08;1.51;67.59
64111;DHT22;50401;48.188;11.566;2023-02-26T07:27:34;1.33;67.70
64111;DHT22;50401;48.188;11.566;2023-02-26T07:29:59;1.10;68.12
64111;DHT22;50401;48.188;11.566;2023-02-26T07:32:25;0.76;69.44
64111;DHT22;50401;48.188;11.566;2023-02-26T07:34:51;0.66;69.86
64111;DHT22;50401;48.188;11.566;2023-02-26T07:37:16;0.64;70.01
64111;DHT22;50401;48.188;11.566;2023-02-26T07:39:42;0.88;69.51
64111;DHT22;50401;48.188;11.566;2023-02-26T07:42:07;1.07;69.23
64111;DHT22;50401;48.188;11.566;2023-02-26T07:44:33;1.13;69.05
64111;DHT22;50401;48.188;11.566;2023-02-26T07:46:58;1.04;69.17
64111;DHT22;50401;48.188;11.566;2023-02-26T07:49:24;1.04;69.23
64111;DHT22;50401;48.188;11.566;2023-02-26T07:51:49;1.14;69.32
64111;DHT22;50401;48.188;11.566;2023-02-26T07:54:15;1.17;68.66
64111;DHT22;50401;48.188;11.566;2023-02-26T07:56:40;2.06;67.38
64111;DHT22;50401;48.188;11.566;2023-02-26T07:59:07;6.21;58.33
64111;DHT22;50401;48.188;11.566;2023-02-26T08:01:34;10.06;46.60
64111;DHT22;50401;48.188;11.566;2023-02-26T08:03:59;12.28;40.23
64111;DHT22;50401;48.188;11.566;2023-02-26T08:06:25;10.43;41.28
64111;DHT22;50401;48.188;11.566;2023-02-26T08:08:50;7.62;47.05
64111;DHT22;50401;48.188;11.566;2023-02-26T08:11:15;5.68;52.30
64111;DHT22;50401;48.188;11.566;2023-02-26T08:13:41;4.49;56.01
64111;DHT22;50401;48.188;11.566;2023-02-26T08:16:06;3.57;59.13
64111;DHT22;50401;48.188;11.566;2023-02-26T08:18:31;2.90;61.20
64111;DHT22;50401;48.188;11.566;2023-02-26T08:20:57;2.46;63.30
64111;DHT22;50401;48.188;11.566;2023-02-26T08:23:22;1.86;65.30
64111;DHT22;50401;48.188;11.566;2023-02-26T08:25:47;1.49;66.69
64111;DHT22;50401;48.188;11.566;2023-02-26T08:28:14;1.34;67.17
64111;DHT22;50401;48.188;11.566;2023-02-26T08:30:40;1.30;66.95
64111;DHT22;50401;48.188;11.566;2023-02-26T08:33:05;1.19;67.39
64111;DHT22;50401;48.188;11.566;2023-02-26T08:35:30;1.13;68.21
64111;DHT22;50401;48.188;11.566;2023-02-26T08:37:56;0.93;68.20
64111;DHT22;50401;48.188;11.566;2023-02-26T08:40:22;0.75;69.50
64111;DHT22;50401;48.188;11.566;2023-02-26T08:42:47;0.71;69.31
64111;DHT22;50401;48.188;11.566;2023-02-26T08:45:13;0.73;69.94
64111;DHT22;50401;48.188;11.566;2023-02-26T08:47:38;0.66;69.32
64111;DHT22;50401;48.188;11.566;2023-02-26T08:50:06;0.43;70.00
64111;DHT22;50401;48.188;11.566;2023-02-26T08:52:31;-0.32;73.49
64111;DHT22;50401;48.188;11.566;2023-02-26T08:54:58;0.05;72.25
64111;DHT22;50401;48.188;11.566;2023-02-26T08:57:23;-0.01;72.04
64111;DHT22;50401;48.188;11.566;2023-02-26T08:59:48;0.05;71.82
64111;DHT22;50401;48.188;11.566;2023-02-26T09:02:14;0.01;71.78
64111;DHT22;50401;48.188;11.566;2023-02-26T09:04:40;0.13;71.72
64111;DHT22;50401;48.188;11.566;2023-02-26T09:07:05;0.19;71.69
64111;DHT22;50401;48.188;11.566;2023-02-26T09:09:30;0.14;71.97
64111;DHT22;50401;48.188;11.566;2023-02-26T09:11:56;0.24;71.81
64111;DHT22;50401;48.188;11.566;2023-02-26T09:14:23;0.23;71.39
64111;DHT22;50401;48.188;11.566;2023-02-26T09:16:48;0.23;71.69
64111;DHT22;50401;48.188;11.566;2023-02-26T09:19:14;0.40;72.17
64111;DHT22;50401;48.188;11.566;2023-02-26T09:21:39;0.47;71.98
64111;DHT22;50401;48.188;11.566;2023-02-26T09:24:05;0.29;71.76
64111;DHT22;50401;48.188;11.566;2023-02-26T09:26:30;0.10;71.95
64111;DHT22;50401;48.188;11.566;2023-02-26T09:28:56;0.21;72.24
64111;DHT22;50401;48.188;11.566;2023-02-26T09:31:21;0.07;72.59
64111;DHT22;50401;48.188;11.566;2023-02-26T09:33:47;0.23;72.77
64111;DHT22;50401;48.188;11.566;2023-02-26T09:36:12;-0.01;72.73
64111;DHT22;50401;48.188;11.566;2023-02-26T09:38:38;0.02;73.75
64111;DHT22;50401;48.188;11.566;2023-02-26T09:41:21;0.12;73.51
64111;DHT22;50401;48.188;11.566;2023-02-26T09:44:06;0.13;73.49
64111;DHT22;50401;48.188;11.566;2023-02-26T09:47:26;0.23;73.70
64111;DHT22;50401;48.188;11.566;2023-02-26T09:54:59;0.17;73.60
64111;DHT22;50401;48.188;11.566;2023-02-26T09:57:32;0.24;73.83
64111;DHT22;50401;48.188;11.566;2023-02-26T09:59:59;0.36;73.40
64111;DHT22;50401;48.188;11.566;2023-02-26T10:05:14;0.60;73.55
64111;DHT22;50401;48.188;11.566;2023-02-26T10:08:01;0.31;73.12
64111;DHT22;50401;48.188;11.566;2023-02-26T10:13:24;0.60;73.50
64111;DHT22;50401;48.188;11.566;2023-02-26T10:16:03;0.89;73.06
64111;DHT22;50401;48.188;11.566;2023-02-26T10:18:33;0.95;71.82
64111;DHT22;50401;48.188;11.566;2023-02-26T10:21:08;1.08;71.86
64111;DHT22;50401;48.188;11.566;2023-02-26T10:23:48;1.08;71.67
64111;DHT22;50401;48.188;11.566;2023-02-26T10:26:18;1.04;71.02
64111;DHT22;50401;48.188;11.566;2023-02-26T10:28:59;1.01;71.96
64111;DHT22;50401;48.188;11.566;2023-02-26T10:36:47;1.30;71.00
64111;DHT22;50401;48.188;11.566;2023-02-26T10:39:32;1.17;71.02
64111;DHT22;50401;48.188;11.566;2023-02-26T10:42:02;1.07;71.01
64111;DHT22;50401;48.188;11.566;2023-02-26T10:50:03;1.28;71.21
64111;DHT22;50401;48.188;11.566;2023-02-26T10:52:33;1.51;71.81
64111;DHT22;50401;48.188;11.566;2023-02-26T10:57:53;1.13;72.21
64111;DHT22;50401;48.188;11.566;2023-02-26T11:00:20;0.93;71.79
64111;DHT22;50401;48.188;11.566;2023-02-26T11:02:49;0.65;72.07
64111;DHT22;50401;48.188;11.566;2023-02-26T11:05:28;0.81;72.59
64111;DHT22;50401;48.188;11.566;2023-02-26T11:07:56;0.90;72.35
64111;DHT22;50401;48.188;11.566;2023-02-26T11:10:26;0.96;72.45
64111;DHT22;50401;48.188;11.566;2023-02-26T11:12:52;1.17;71.92
64111;DHT22;50401;48.188;11.566;2023-02-26T11:15:22;0.93;71.47
64111;DHT22;50401;48.188;11.566;2023-02-26T11:17:53;1.03;71.85
64111;DHT22;50401;48.188;11.566;2023-02-26T11:22:52;0.99;72.12
64111;DHT22;50401;48.188;11.566;2023-02-26T11:25:23;0.85;72.89
64111;DHT22;50401;48.188;11.566;2023-02-26T11:27:56;0.79;72.06
64111;DHT22;50401;48.188;11.566;2023-02-26T11:30:26;0.95;71.87
64111;DHT22;50401;48.188;11.566;2023-02-26T11:32:53;1.16;71.40
64111;DHT22;50401;48.188;11.566;2023-02-26T11:35:23;1.27;71.37
64111;DHT22;50401;48.188;11.566;2023-02-26T11:37:57;0.83;72.99
64111;DHT22;50401;48.188;11.566;2023-02-26T11:40:39;0.76;74.40
64111;DHT22;50401;48.188;11.566;2023-02-26T11:43:09;0.68;75.10
64111;DHT22;50401;48.188;11.566;2023-02-26T11:45:42;0.69;74.72
64111;DHT22;50401;48.188;11.566;2023-02-26T11:48:18;0.78;73.92
64111;DHT22;50401;48.188;11.566;2023-02-26T11:50:46;0.97;74.03
64111;DHT22;50401;48.188;11.566;2023-02-26T11:53:18;0.60;74.23
64111;DHT22;50401;48.188;11.566;2023-02-26T11:55:46;0.64;74.54
64111;DHT22;50401;48.188;11.566;2023-02-26T11:58:19;0.71;73.73
64111;DHT22;50401;48.188;11.566;2023-02-26T12:00:46;0.68;73.82
64111;DHT22;50401;48.188;11.566;2023-02-26T12:03:24;0.79;73.83
64111;DHT22;50401;48.188;11.566;2023-02-26T12:05:50;0.90;73.34
64111;DHT22;50401;48.188;11.566;2023-02-26T12:08:31;1.03;72.89
64111;DHT22;50401;48.188;11.566;2023-02-26T12:17:04;1.03;70.19
64111;DHT22;50401;48.188;11.566;2023-02-26T12:25:49;1.41;68.65
64111;DHT22;50401;48.188;11.566;2023-02-26T12:28:26;1.52;68.32
64111;DHT22;50401;48.188;11.566;2023-02-26T12:40:15;1.73;66.48
64111;DHT22;50401;48.188;11.566;2023-02-26T12:48:14;1.60;65.13
64111;DHT22;50401;48.188;11.566;2023-02-26T12:51:04;1.12;67.35
64111;DHT22;50401;48.188;11.566;2023-02-26T12:53:57;1.54;65.98
64111;DHT22;50401;48.188;11.566;2023-02-26T12:59:17;1.90;64.84
64111;DHT22;50401;48.188;11.566;2023-02-26T13:10:02;1.24;67.18
64111;DHT22;50401;48.188;11.566;2023-02-26T13:18:05;1.20;68.46
64111;DHT22;50401;48.188;11.566;2023-02-26T13:20:34;1.35;69.00
64111;DHT22;50401;48.188;11.566;2023-02-26T13:23:22;1.58;66.79
64111;DHT22;50401;48.188;11.566;2023-02-26T13:26:15;1.66;67.09
64111;DHT22;50401;48.188;11.566;2023-02-26T13:28:51;1.89;66.26
64111;DHT22;50401;48.188;11.566;2023-02-26T13:31:24;2.18;66.57
64111;DHT22;50401;48.188;11.566;2023-02-26T13:33:50;2.27;66.70
64111;DHT22;50401;48.188;11.566;2023-02-26T13:36:17;2.29;66.43
64111;DHT22;50401;48.188;11.566;2023-02-26T13:38:49;1.86;68.82
64111;DHT22;50401;48.188;11.566;2023-02-26T13:41:43;1.51;70.62
64111;DHT22;50401;48.188;11.566;2023-02-26T13:44:18;1.40;71.18
64111;DHT22;50401;48.188;11.566;2023-02-26T13:47:04;1.41;70.56
64111;DHT22;50401;48.188;11.566;2023-02-26T13:50:01;1.58;69.45
64111;DHT22;50401;48.188;11.566;2023-02-26T13:52:30;1.66;68.84
64111;DHT22;50401;48.188;11.566;2023-02-26T13:54:56;1.59;68.13
64111;DHT22;50401;48.188;11.566;2023-02-26T13:57:50;1.42;67.50
64111;DHT22;50401;48.188;11.566;2023-02-26T14:00:32;1.41;67.02
64111;DHT22;50401;48.188;11.566;2023-02-26T14:10:55;1.48;64.39
64111;DHT22;50401;48.188;11.566;2023-02-26T14:13:23;1.54;64.42
64111;DHT22;50401;48.188;11.566;2023-02-26T14:16:20;1.56;64.90
64111;DHT22;50401;48.188;11.566;2023-02-26T14:23:51;1.60;64.55
64111;DHT22;50401;48.188;11.566;2023-02-26T14:26:20;1.62;64.18
64111;DHT22;50401;48.188;11.566;2023-02-26T14:32:00;1.97;61.87
64111;DHT22;50401;48.188;11.566;2023-02-26T14:34:31;1.94;62.27
64111;DHT22;50401;48.188;11.566;2023-02-26T14:37:02;1.83;63.16
64111;DHT22;50401;48.188;11.566;2023-02-26T14:40:32;1.84;62.41
64111;DHT22;50401;48.188;11.566;2023-02-26T14:42:41;1.83;62.72
64111;DHT22;50401;48.188;11.566;2023-02-26T14:47:35;1.62;59.68
64111;DHT22;50401;48.188;11.566;2023-02-26T14:50:02;1.54;59.35
64111;DHT22;50401;48.188;11.566;2023-02-26T14:52:38;1.56;59.14
64111;DHT22;50401;48.188;11.566;2023-02-26T15:06:52;1.79;59.08
64111;DHT22;50401;48.188;11.566;2023-02-26T15:09:37;1.72;58.84
64111;DHT22;50401;48.188;11.566;2023-02-26T15:25:15;0.73;68.37
64111;DHT22;50401;48.188;11.566;2023-02-26T15:27:42;1.01;68.96
64111;DHT22;50401;48.188;11.566;2023-02-26T15:30:13;0.68;68.96
64111;DHT22;50401;48.188;11.566;2023-02-26T15:32:39;0.66;69.72
64111;DHT22;50401;48.188;11.566;2023-02-26T15:35:17;0.55;69.97
64111;DHT22;50401;48.188;11.566;2023-02-26T15:37:48;0.68;69.29
64111;DHT22;50401;48.188;11.566;2023-02-26T15:40:14;0.82;68.95
64111;DHT22;50401;48.188;11.566;2023-02-26T15:42:40;0.90;68.32
64111;DHT22;50401;48.188;11.566;2023-02-26T15:45:39;0.58;69.05
64111;DHT22;50401;48.188;11.566;2023-02-26T15:48:14;0.60;69.35
64111;DHT22;50401;48.188;11.566;2023-02-26T15:50:43;0.88;69.06
64111;DHT22;50401;48.188;11.566;2023-02-26T15:53:17;1.08;68.61
64111;DHT22;50401;48.188;11.566;2023-02-26T15:55:49;1.22;67.67
64111;DHT22;50401;48.188;11.566;2023-02-26T15:58:21;1.27;65.35
64111;DHT22;50401;48.188;11.566;2023-02-26T16:00:52;1.35;64.65
64111;DHT22;50401;48.188;11.566;2023-02-26T16:03:25;1.31;63.80
64111;DHT22;50401;48.188;11.566;2023-02-26T16:05:53;1.34;63.93
64111;DHT22;50401;48.188;11.566;2023-02-26T16:08:18;1.40;63.94
64111;DHT22;50401;48.188;11.566;2023-02-26T16:10:44;1.45;64.27
64111;DHT22;50401;48.188;11.566;2023-02-26T16:13:14;1.42;63.38
64111;DHT22;50401;48.188;11.566;2023-02-26T16:15:40;1.31;63.07
64111;DHT22;50401;48.188;11.566;2023-02-26T16:18:11;1.38;63.07
64111;DHT22;50401;48.188;11.566;2023-02-26T16:20:41;1.38;62.78
64111;DHT22;50401;48.188;11.566;2023-02-26T16:23:20;1.48;63.16
64111;DHT22;50401;48.188;11.566;2023-02-26T16:28:18;1.54;63.48
64111;DHT22;50401;48.188;11.566;2023-02-26T16:30:48;1.04;64.91
64111;DHT22;50401;48.188;11.566;2023-02-26T16:33:16;1.12;64.72
64111;DHT22;50401;48.188;11.566;2023-02-26T16:35:47;0.31;69.94
64111;DHT22;50401;48.188;11.566;2023-02-26T16:38:23;0.50;73.78
64111;DHT22;50401;48.188;11.566;2023-02-26T16:41:01;0.36;73.91
64111;DHT22;50401;48.188;11.566;2023-02-26T16:43:33;0.30;73.41
64111;DHT22;50401;48.188;11.566;2023-02-26T16:46:02;0.19;73.14
64111;DHT22;50401;48.188;11.566;2023-02-26T16:48:34;0.21;73.98
64111;DHT22;50401;48.188;11.566;2023-02-26T16:51:08;0.20;74.10
64111;DHT22;50401;48.188;11.566;2023-02-26T16:53:40;0.30;74.69
64111;DHT22;50401;48.188;11.566;2023-02-26T16:56:12;0.37;74.24
64111;DHT22;50401;48.188;11.566;2023-02-26T16:58:48;0.40;74.11
64111;DHT22;50401;48.188;11.566;2023-02-26T17:01:17;0.47;74.07
64111;DHT22;50401;48.188;11.566;2023-02-26T17:03:49;0.50;73.48
64111;DHT22;50401;48.188;11.566;2023-02-26T17:06:21;0.57;72.84
64111;DHT22;50401;48.188;11.566;2023-02-26T17:08:51;0.60;72.68
64111;DHT22;50401;48.188;11.566;2023-02-26T17:11:31;0.57;72.48
64111;DHT22;50401;48.188;11.566;2023-02-26T17:16:46;0.65;72.34
64111;DHT22;50401;48.188;11.566;2023-02-26T17:19:12;0.73;72.45
64111;DHT22;50401;48.188;11.566;2023-02-26T17:21:42;0.57;72.07
64111;DHT22;50401;48.188;11.566;2023-02-26T17:24:16;0.55;71.82
64111;DHT22;50401;48.188;11.566;2023-02-26T17:26:43;0.53;71.08
64111;DHT22;50401;48.188;11.566;2023-02-26T17:29:17;0.50;71.24
64111;DHT22;50401;48.188;11.566;2023-02-26T17:31:43;0.54;70.82
64111;DHT22;50401;48.188;11.566;2023-02-26T17:34:10;0.40;70.90
64111;DHT22;50401;48.188;11.566;2023-02-26T17:36:35;0.37;71.44
64111;DHT22;50401;48.188;11.566;2023-02-26T17:39:01;0.36;71.61
64111;DHT22;50401;48.188;11.566;2023-02-26T17:41:26;0.17;73.13
64111;DHT22;50401;48.188;11.566;2023-02-26T17:43:53;0.33;72.81
64111;DHT22;50401;48.188;11.566;2023-02-26T17:46:18;0.16;75.44
64111;DHT22;50401;48.188;11.566;2023-02-26T17:48:43;-0.09;77.40
64111;DHT22;50401;48.188;11.566;2023-02-26T17:51:09;-0.32;77.40
64111;DHT22;50401;48.188;11.566;2023-02-26T17:53:35;-0.26;78.55
64111;DHT22;50401;48.188;11.566;2023-02-26T17:56:10;-0.32;78.58
64111;DHT22;50401;48.188;11.566;2023-02-26T17:58:36;-0.26;78.03
64111;DHT22;50401;48.188;11.566;2023-02-26T18:01:02;-0.26;78.04
64111;DHT22;50401;48.188;11.566;2023-02-26T18:03:28;-0.30;77.90
64111;DHT22;50401;48.188;11.566;2023-02-26T18:05:55;-0.26;77.95
64111;DHT22;50401;48.188;11.566;2023-02-26T18:08:26;-0.21;77.40
64111;DHT22;50401;48.188;11.566;2023-02-26T18:10:53;-0.25;77.17
64111;DHT22;50401;48.188;11.566;2023-02-26T18:13:19;-0.18;76.68
64111;DHT22;50401;48.188;11.566;2023-02-26T18:15:45;-0.22;76.43
64111;DHT22;50401;48.188;11.566;2023-02-26T18:18:12;-0.21;75.58
64111;DHT22;50401;48.188;11.566;2023-02-26T18:20:38;-0.11;74.88
64111;DHT22;50401;48.188;11.566;2023-02-26T18:23:04;0.03;74.74